Time;durP1;ratioP1;P1;durP2;ratioP2;P2;SDS_P1;SDS_P2;PMS_P1;PMS_P2;Temp;Humidity;BMP_temperature;BMP_pressure;BME280_temperature;BME280_humidity;BME280_pressure;Samples;Min_cycle;Max_cycle;Signal;HPM_P1;HPM_P2
2022/10/01 00:00:19;;;;;;;6.97;1.20;;;15.30;99.90;;;;;;5032491;28;20040;-73
2022/10/01 00:02:45;;;;;;;6.05;1.00;;;15.20;99.90;;;;;;5041628;28;20483;-73
2022/10/01 00:05:11;;;;;;;10.77;1.42;;;15.20;99.90;;;;;;5035258;28;20033;-73
2022/10/01 00:07:42;;;;;;;9.40;1.33;;;15.20;99.90;;;;;;5038999;28;20676;-71
2022/10/01 00:10:10;;;;;;;9.02;1.63;;;15.20;99.90;;;;;;5035921;28;20168;-72
2022/10/01 00:12:37;;;;;;;10.20;1.60;;;15.20;99.90;;;;;;5041795;28;20067;-72
2022/10/01 00:15:08;;;;;;;5.57;1.23;;;15.10;99.90;;;;;;5031631;28;20041;-71
2022/10/01 00:17:35;;;;;;;6.78;1.40;;;15.10;99.90;;;;;;5039295;28;20045;-71
2022/10/01 00:20:02;;;;;;;6.07;1.48;;;15.20;99.90;;;;;;5033563;28;20045;-70
2022/10/01 00:22:33;;;;;;;8.68;1.20;;;15.10;99.90;;;;;;5045733;28;20029;-71
2022/10/01 00:24:59;;;;;;;9.02;1.30;;;15.10;99.90;;;;;;5053569;28;20032;-71
2022/10/01 00:27:26;;;;;;;5.47;1.52;;;15.00;99.90;;;;;;5046165;28;20061;-71
2022/10/01 00:29:52;;;;;;;6.20;1.25;;;15.10;99.90;;;;;;5039069;28;20087;-70
2022/10/01 00:32:19;;;;;;;7.10;1.42;;;15.00;99.90;;;;;;5046373;28;20895;-73
2022/10/01 00:34:44;;;;;;;8.40;1.42;;;15.00;99.90;;;;;;5046355;28;20041;-73
2022/10/01 00:37:10;;;;;;;10.20;1.58;;;15.00;99.90;;;;;;5046207;28;20029;-72
2022/10/01 00:39:36;;;;;;;7.70;1.30;;;14.90;99.90;;;;;;5041864;28;20029;-72
2022/10/01 00:42:12;;;;;;;9.07;1.25;;;15.00;99.90;;;;;;5033572;28;20405;-72
2022/10/01 00:44:38;;;;;;;6.05;1.50;;;14.90;99.90;;;;;;5049186;28;20566;-73
2022/10/01 00:47:27;;;;;;;6.53;1.23;;;14.90;99.90;;;;;;5054909;28;20047;-73
2022/10/01 00:50:04;;;;;;;10.50;1.92;;;14.80;99.90;;;;;;5048406;28;20041;-73
2022/10/01 00:52:33;;;;;;;10.90;2.03;;;14.90;99.90;;;;;;5044459;28;20044;-72
2022/10/01 00:55:11;;;;;;;13.73;1.70;;;14.80;99.90;;;;;;5041992;28;20453;-72
2022/10/01 00:57:38;;;;;;;7.93;1.42;;;14.80;99.90;;;;;;5045398;28;20037;-73
2022/10/01 01:00:08;;;;;;;10.65;1.60;;;14.80;99.90;;;;;;5034920;28;20045;-73
2022/10/01 01:02:34;;;;;;;10.57;1.70;;;14.80;99.90;;;;;;5044552;28;20398;-71
2022/10/01 01:05:01;;;;;;;10.32;2.05;;;14.80;99.90;;;;;;5045796;28;20493;-72
2022/10/01 01:07:29;;;;;;;13.35;1.90;;;14.80;99.90;;;;;;5037940;28;20498;-71
2022/10/01 01:09:55;;;;;;;9.18;1.80;;;14.70;99.90;;;;;;5041624;28;20074;-71
2022/10/01 01:12:44;;;;;;;8.13;1.67;;;14.70;99.90;;;;;;5039294;28;20033;-72
2022/10/01 01:15:47;;;;;;;9.55;1.80;;;14.70;99.90;;;;;;5060231;28;20036;-72
2022/10/01 01:18:20;;;;;;;13.13;1.92;;;14.70;99.90;;;;;;5045189;28;20074;-71
2022/10/01 01:21:01;;;;;;;12.85;1.98;;;14.70;99.90;;;;;;5043707;28;20033;-71
2022/10/01 01:23:54;;;;;;;10.23;1.85;;;14.70;99.90;;;;;;5036180;28;20120;-71
2022/10/01 01:26:28;;;;;;;11.65;2.00;;;14.70;99.90;;;;;;5037450;28;20037;-71
2022/10/01 01:29:05;;;;;;;13.82;2.75;;;14.70;99.90;;;;;;5049429;28;20132;-71
2022/10/01 01:31:38;;;;;;;14.43;2.08;;;14.60;99.90;;;;;;5044676;28;20044;-72
2022/10/01 01:34:11;;;;;;;11.00;1.67;;;14.60;99.90;;;;;;5050935;28;20036;-71
2022/10/01 01:36:42;;;;;;;9.80;1.42;;;14.60;99.90;;;;;;5048614;28;20072;-71
2022/10/01 01:39:12;;;;;;;13.85;2.15;;;14.60;99.90;;;;;;5036458;28;20029;-71
2022/10/01 01:41:40;;;;;;;;;;;14.60;99.90;;;;;;5046499;28;20033;-71
2022/10/01 01:44:10;;;;;;;10.05;2.13;;;14.50;99.90;;;;;;5048577;28;19913;-71
2022/10/01 01:46:40;;;;;;;14.65;2.10;;;14.50;99.90;;;;;;5034336;28;20033;-72
2022/10/01 01:49:06;;;;;;;;;;;14.50;99.90;;;;;;5050062;28;20243;-72
2022/10/01 01:51:46;;;;;;;14.10;2.20;;;14.50;99.90;;;;;;5033388;28;20001;-72
2022/10/01 01:54:12;;;;;;;12.18;1.83;;;14.50;99.90;;;;;;5036794;28;20055;-72
2022/10/01 01:56:37;;;;;;;15.63;2.70;;;14.40;99.90;;;;;;5036619;28;20107;-71
2022/10/01 01:59:04;;;;;;;14.95;2.22;;;14.50;99.90;;;;;;5042555;28;20029;-72
2022/10/01 02:01:41;;;;;;;14.63;2.38;;;14.40;99.90;;;;;;5036071;28;20022;-70
2022/10/01 02:04:29;;;;;;;12.10;2.13;;;14.40;99.90;;;;;;5040848;28;20776;-71
2022/10/01 02:07:14;;;;;;;14.15;2.38;;;14.40;99.90;;;;;;5033344;28;20133;-71
2022/10/01 02:09:49;;;;;;;14.98;2.30;;;14.40;99.90;;;;;;5041378;28;20547;-71
2022/10/01 02:12:42;;;;;;;17.52;2.38;;;14.40;99.90;;;;;;5037501;28;20044;-74
2022/10/01 02:15:34;;;;;;;13.20;2.13;;;14.40;99.90;;;;;;5053141;28;20119;-71
2022/10/01 02:18:15;;;;;;;11.52;1.85;;;14.40;99.90;;;;;;5043426;28;20249;-71
2022/10/01 02:21:09;;;;;;;12.50;2.53;;;14.40;99.90;;;;;;5032392;28;20171;-70
2022/10/01 02:23:42;;;;;;;14.77;2.53;;;14.30;99.90;;;;;;5044779;28;20033;-71
2022/10/01 02:26:14;;;;;;;15.20;2.03;;;14.30;99.90;;;;;;5043138;28;20028;-71
2022/10/01 02:28:41;;;;;;;15.77;2.20;;;14.30;99.90;;;;;;5038144;28;20099;-72
2022/10/01 02:31:09;;;;;;;12.63;2.30;;;14.20;99.90;;;;;;5044636;28;20466;-72
2022/10/01 02:33:36;;;;;;;12.73;2.42;;;14.30;99.90;;;;;;5047371;28;20100;-71
2022/10/01 02:36:04;;;;;;;9.77;2.38;;;14.30;99.90;;;;;;5041719;28;20064;-70
2022/10/01 02:38:33;;;;;;;14.90;2.05;;;14.30;99.90;;;;;;5042038;28;20068;-72
2022/10/01 02:41:03;;;;;;;13.83;2.20;;;14.30;99.90;;;;;;5042184;28;20037;-71
2022/10/01 02:43:37;;;;;;;19.10;3.03;;;14.30;99.90;;;;;;5055034;28;20059;-72
2022/10/01 02:46:14;;;;;;;15.98;2.78;;;14.30;99.90;;;;;;5041980;28;20075;-70
2022/10/01 02:48:40;;;;;;;14.23;1.90;;;14.30;99.90;;;;;;5040559;28;20059;-71
2022/10/01 02:51:13;;;;;;;19.13;2.90;;;14.30;99.90;;;;;;5041155;28;20053;-70
2022/10/01 02:53:47;;;;;;;12.15;2.10;;;14.30;99.90;;;;;;5037178;28;20135;-71
2022/10/01 02:57:21;;;;;;;13.32;2.58;;;14.30;99.90;;;;;;5031260;28;20037;-70
2022/10/01 02:58:59;;;;;;;13.68;2.28;;;14.20;99.90;;;;;;5042434;28;20044;-71
2022/10/01 03:01:25;;;;;;;16.10;2.88;;;14.20;99.90;;;;;;5038196;28;20029;-71
2022/10/01 03:03:52;;;;;;;14.60;2.58;;;14.20;99.90;;;;;;5034019;28;20029;-71
2022/10/01 03:06:18;;;;;;;16.15;2.60;;;14.20;99.90;;;;;;5034354;28;20049;-71
2022/10/01 03:08:44;;;;;;;13.68;2.50;;;14.20;99.90;;;;;;5042708;28;20041;-71
2022/10/01 03:11:09;;;;;;;17.77;3.55;;;14.20;99.90;;;;;;5033281;28;20060;-71
2022/10/01 03:13:35;;;;;;;14.65;2.45;;;14.10;99.90;;;;;;5045207;28;20047;-71
2022/10/01 03:16:01;;;;;;;21.63;3.38;;;14.10;99.90;;;;;;5052114;28;20501;-71
2022/10/01 03:18:27;;;;;;;11.52;2.10;;;14.10;99.90;;;;;;5030867;28;20029;-71
2022/10/01 03:20:52;;;;;;;10.65;1.85;;;14.10;99.90;;;;;;5035294;28;20526;-70
2022/10/01 03:23:18;;;;;;;16.63;2.03;;;14.10;99.90;;;;;;5048698;28;20025;-71
2022/10/01 03:25:43;;;;;;;17.00;3.13;;;14.10;99.90;;;;;;5038139;28;20062;-70
2022/10/01 03:28:09;;;;;;;15.25;2.35;;;14.00;99.90;;;;;;5038815;28;20043;-71
2022/10/01 03:30:35;;;;;;;16.10;3.03;;;14.00;99.90;;;;;;5030690;28;20041;-71
2022/10/01 03:33:00;;;;;;;23.65;3.03;;;14.00;99.90;;;;;;5050401;28;20600;-71
2022/10/01 03:35:26;;;;;;;13.63;2.30;;;13.90;99.90;;;;;;5036665;28;20030;-72
2022/10/01 03:37:51;;;;;;;16.42;2.65;;;14.00;99.90;;;;;;5044789;28;20094;-71
2022/10/01 03:40:17;;;;;;;13.30;2.03;;;13.90;99.90;;;;;;5038182;28;20805;-70
2022/10/01 03:42:43;;;;;;;17.08;2.67;;;13.90;99.90;;;;;;5040281;28;20780;-71
2022/10/01 03:45:09;;;;;;;17.17;2.78;;;13.90;99.90;;;;;;5041398;28;20029;-70
2022/10/01 03:47:34;;;;;;;16.20;2.40;;;13.80;99.90;;;;;;5044002;28;20048;-72
2022/10/01 03:50:00;;;;;;;17.27;2.65;;;13.80;99.90;;;;;;5031500;28;20065;-71
2022/10/01 03:52:25;;;;;;;16.50;2.55;;;13.80;99.90;;;;;;5029638;28;20170;-71
2022/10/01 03:54:51;;;;;;;16.30;3.08;;;13.80;99.90;;;;;;5043956;28;20484;-70
2022/10/01 03:57:17;;;;;;;17.95;2.63;;;13.80;99.90;;;;;;5042505;28;20036;-71
2022/10/01 03:59:42;;;;;;;16.98;2.83;;;13.80;99.90;;;;;;5047440;28;20156;-71
2022/10/01 04:02:08;;;;;;;12.88;2.08;;;13.70;99.90;;;;;;5045372;28;20024;-71
2022/10/01 04:04:33;;;;;;;17.58;2.88;;;13.80;99.90;;;;;;5041215;28;20458;-71
2022/10/01 04:06:59;;;;;;;17.63;2.85;;;13.80;99.90;;;;;;5029054;28;20547;-72
2022/10/01 04:09:25;;;;;;;21.05;2.90;;;13.70;99.90;;;;;;5027873;28;20043;-71
2022/10/01 04:11:50;;;;;;;14.68;2.30;;;13.70;99.90;;;;;;5032339;28;20087;-71
2022/10/01 04:14:16;;;;;;;17.20;3.25;;;13.80;99.90;;;;;;5047390;28;20119;-70
2022/10/01 04:16:42;;;;;;;20.98;3.72;;;13.70;99.90;;;;;;5043219;28;20120;-70
2022/10/01 04:19:07;;;;;;;18.88;3.30;;;13.70;99.90;;;;;;5044376;28;20037;-71
2022/10/01 04:21:33;;;;;;;19.00;3.05;;;13.70;99.90;;;;;;5045379;28;20102;-71
2022/10/01 04:24:01;;;;;;;20.58;2.80;;;13.80;99.90;;;;;;5039248;28;20037;-71
2022/10/01 04:26:27;;;;;;;14.40;2.63;;;13.80;99.90;;;;;;5040940;28;20446;-71
2022/10/01 04:28:53;;;;;;;18.98;2.63;;;13.80;99.90;;;;;;5037691;28;20025;-71
2022/10/01 04:31:24;;;;;;;16.35;2.97;;;13.80;99.90;;;;;;5042551;28;20041;-71
2022/10/01 04:33:51;;;;;;;18.33;2.75;;;13.80;99.90;;;;;;5044423;28;20158;-71
2022/10/01 04:36:17;;;;;;;27.30;3.55;;;13.80;99.90;;;;;;5032402;28;20085;-70
2022/10/01 04:38:42;;;;;;;18.25;3.05;;;13.80;99.90;;;;;;5036784;28;20069;-71
2022/10/01 04:41:08;;;;;;;18.90;2.97;;;13.80;99.90;;;;;;5031742;28;20479;-71
2022/10/01 04:43:35;;;;;;;16.85;3.33;;;13.80;99.90;;;;;;5031649;28;20034;-70
2022/10/01 04:46:00;;;;;;;17.40;2.95;;;13.80;99.90;;;;;;5038650;28;20032;-70
2022/10/01 04:48:26;;;;;;;24.15;3.35;;;13.80;99.90;;;;;;5037447;28;20037;-71
2022/10/01 04:50:51;;;;;;;20.05;3.50;;;13.80;99.90;;;;;;5032103;28;20436;-71
2022/10/01 04:53:17;;;;;;;21.40;3.25;;;13.70;99.90;;;;;;5036860;28;20038;-71
2022/10/01 04:55:43;;;;;;;18.80;2.70;;;13.70;99.90;;;;;;5056131;28;20045;-71
2022/10/01 04:58:09;;;;;;;23.73;3.33;;;13.70;99.90;;;;;;5027102;28;20115;-70
2022/10/01 05:00:34;;;;;;;22.25;3.05;;;13.60;99.90;;;;;;5038390;28;20117;-71
2022/10/01 05:03:00;;;;;;;22.30;2.70;;;13.60;99.90;;;;;;5040035;28;20111;-71
2022/10/01 05:05:27;;;;;;;22.25;3.60;;;13.60;99.90;;;;;;5043736;28;20491;-71
2022/10/01 05:07:54;;;;;;;19.20;2.88;;;13.60;99.90;;;;;;5031480;28;20037;-71
2022/10/01 05:10:22;;;;;;;20.88;2.88;;;13.60;99.90;;;;;;5033001;28;20107;-71
2022/10/01 05:12:48;;;;;;;16.23;2.88;;;13.60;99.90;;;;;;5031047;28;20033;-70
2022/10/01 05:15:15;;;;;;;20.13;3.40;;;13.50;99.90;;;;;;5030326;28;20049;-71
2022/10/01 05:17:41;;;;;;;23.58;3.00;;;13.50;99.90;;;;;;5031226;28;20537;-70
2022/10/01 05:20:10;;;;;;;18.05;2.67;;;13.50;99.90;;;;;;5044562;28;20037;-70
2022/10/01 05:22:36;;;;;;;22.48;3.95;;;13.50;99.90;;;;;;5038655;28;20040;-71
2022/10/01 05:25:02;;;;;;;21.85;3.10;;;13.50;99.90;;;;;;5052442;28;20033;-71
2022/10/01 05:27:29;;;;;;;20.20;2.50;;;13.50;99.90;;;;;;5062935;28;20685;-70
2022/10/01 05:29:56;;;;;;;25.33;3.35;;;13.40;99.90;;;;;;5061340;28;20032;-71
2022/10/01 05:32:21;;;;;;;19.13;3.08;;;13.40;99.90;;;;;;5056406;28;20059;-71
2022/10/01 05:34:47;;;;;;;22.42;3.22;;;13.40;99.90;;;;;;5047394;28;20075;-71
2022/10/01 05:37:13;;;;;;;21.48;3.13;;;13.40;99.90;;;;;;5047982;28;20699;-70
2022/10/01 05:39:39;;;;;;;17.23;3.25;;;13.40;99.90;;;;;;5047150;28;20421;-71
2022/10/01 05:42:04;;;;;;;20.35;2.88;;;13.40;99.90;;;;;;5050520;28;20557;-70
2022/10/01 05:44:44;;;;;;;20.52;2.90;;;13.40;99.90;;;;;;5050871;28;20033;-70
2022/10/01 05:47:12;;;;;;;18.77;2.95;;;13.40;99.90;;;;;;5044007;28;20488;-71
2022/10/01 05:49:43;;;;;;;19.40;3.42;;;13.40;99.90;;;;;;5042870;28;20094;-70
2022/10/01 05:52:13;;;;;;;18.05;2.88;;;13.40;99.90;;;;;;5039066;28;20029;-70
2022/10/01 05:54:39;;;;;;;21.08;3.20;;;13.30;99.90;;;;;;5036085;28;20033;-71
2022/10/01 05:57:06;;;;;;;18.05;3.03;;;13.30;99.90;;;;;;5041347;28;20043;-71
2022/10/01 05:59:33;;;;;;;18.92;3.13;;;13.30;99.90;;;;;;5048664;28;20037;-70
2022/10/01 06:01:58;;;;;;;19.98;3.13;;;13.30;99.90;;;;;;5034520;28;20033;-71
2022/10/01 06:04:24;;;;;;;16.65;3.42;;;13.30;99.90;;;;;;5050251;28;20032;-70
2022/10/01 06:06:50;;;;;;;18.55;2.92;;;13.30;99.90;;;;;;5045308;28;20057;-71
2022/10/01 06:09:15;;;;;;;19.30;2.90;;;13.30;99.90;;;;;;5033477;28;20048;-71
2022/10/01 06:11:41;;;;;;;17.05;2.80;;;13.30;99.90;;;;;;5044710;28;20033;-71
2022/10/01 06:14:07;;;;;;;16.27;2.53;;;13.30;99.90;;;;;;5038544;28;20033;-70
2022/10/01 06:16:33;;;;;;;26.70;4.50;;;13.30;99.90;;;;;;5036126;28;20395;-71
2022/10/01 06:18:58;;;;;;;20.48;2.70;;;13.30;99.90;;;;;;5033672;28;20072;-70
2022/10/01 06:21:25;;;;;;;20.90;2.83;;;13.30;99.90;;;;;;5035142;28;20048;-71
2022/10/01 06:23:51;;;;;;;17.30;2.60;;;13.30;99.90;;;;;;5032954;28;20045;-70
2022/10/01 06:26:18;;;;;;;19.88;2.75;;;13.30;99.90;;;;;;5033021;28;20088;-71
2022/10/01 06:28:44;;;;;;;17.40;2.50;;;13.40;99.90;;;;;;5036865;28;20757;-70
2022/10/01 06:31:10;;;;;;;16.55;2.55;;;13.50;99.90;;;;;;5038319;28;20037;-70
2022/10/01 06:33:36;;;;;;;19.73;2.80;;;13.50;99.90;;;;;;5044628;28;20040;-70
2022/10/01 06:36:03;;;;;;;15.52;2.47;;;13.60;99.90;;;;;;5042725;28;20033;-69
2022/10/01 06:38:29;;;;;;;18.20;2.97;;;13.60;99.90;;;;;;5043424;28;20040;-71
2022/10/01 06:41:00;;;;;;;18.55;2.70;;;13.70;99.90;;;;;;5044939;28;20040;-71
2022/10/01 06:43:28;;;;;;;13.50;2.30;;;13.70;99.90;;;;;;5047827;28;20055;-71
2022/10/01 06:45:54;;;;;;;15.82;2.22;;;13.80;99.90;;;;;;5045984;28;20025;-70
2022/10/01 06:48:20;;;;;;;17.65;3.15;;;13.80;99.90;;;;;;5042469;28;20029;-71
2022/10/01 06:50:47;;;;;;;17.80;2.65;;;13.80;99.90;;;;;;5034857;28;20034;-71
2022/10/01 06:53:14;;;;;;;22.08;2.88;;;13.80;99.90;;;;;;5029316;28;20407;-71
2022/10/01 06:55:40;;;;;;;16.40;2.90;;;13.80;99.90;;;;;;5042651;28;20175;-71
2022/10/01 06:58:14;;;;;;;18.42;2.65;;;13.80;99.90;;;;;;5034372;28;20521;-72
2022/10/01 07:00:41;;;;;;;18.42;3.50;;;13.90;99.90;;;;;;5046190;28;20087;-70
2022/10/01 07:03:11;;;;;;;16.85;2.50;;;13.80;99.90;;;;;;5041763;28;20037;-71
2022/10/01 07:05:38;;;;;;;16.42;3.17;;;13.80;99.90;;;;;;5042222;28;20041;-70
2022/10/01 07:08:04;;;;;;;14.63;2.08;;;13.80;99.90;;;;;;5038348;28;20032;-70
2022/10/01 07:10:31;;;;;;;19.30;2.78;;;13.80;99.90;;;;;;5037523;28;20038;-70
2022/10/01 07:13:08;;;;;;;11.95;1.98;;;13.80;99.90;;;;;;5044806;28;20040;-71
2022/10/01 07:15:34;;;;;;;20.25;2.67;;;13.80;99.90;;;;;;5043477;28;20025;-70
2022/10/01 07:18:00;;;;;;;18.13;2.28;;;13.90;99.90;;;;;;5046367;28;20040;-71
2022/10/01 07:20:26;;;;;;;18.55;3.75;;;13.90;99.90;;;;;;5046478;28;20483;-71
2022/10/01 07:22:58;;;;;;;16.25;2.85;;;13.90;99.90;;;;;;5046748;28;20060;-72
2022/10/01 07:25:24;;;;;;;14.02;2.60;;;14.00;99.90;;;;;;5053842;28;20025;-71
2022/10/01 07:27:58;;;;;;;18.60;2.55;;;14.10;99.90;;;;;;5041268;28;20491;-71
2022/10/01 07:30:24;;;;;;;21.95;3.13;;;14.10;99.90;;;;;;5046374;28;20043;-71
2022/10/01 07:32:50;;;;;;;17.60;2.63;;;14.20;99.90;;;;;;5041582;28;20040;-70
2022/10/01 07:35:18;;;;;;;13.95;2.60;;;14.30;99.90;;;;;;5047670;28;20029;-70
2022/10/01 07:37:44;;;;;;;17.95;3.35;;;14.40;99.90;;;;;;5040511;28;20059;-69
2022/10/01 07:40:10;;;;;;;16.55;2.95;;;14.50;99.90;;;;;;5041417;28;20057;-70
2022/10/01 07:42:37;;;;;;;18.42;2.83;;;14.60;99.90;;;;;;5040626;28;20183;-71
2022/10/01 07:45:05;;;;;;;18.38;3.00;;;14.60;99.90;;;;;;5050383;28;20120;-70
2022/10/01 07:47:31;;;;;;;19.67;3.20;;;14.70;99.90;;;;;;5040305;28;20043;-74
2022/10/01 07:49:57;;;;;;;13.75;2.05;;;14.80;99.90;;;;;;5039518;28;20045;-71
2022/10/01 07:52:23;;;;;;;16.45;2.58;;;14.80;99.90;;;;;;5034378;28;20079;-70
2022/10/01 07:54:48;;;;;;;14.32;2.40;;;14.90;99.90;;;;;;5037918;28;20029;-71
2022/10/01 07:57:14;;;;;;;16.05;2.83;;;15.00;99.90;;;;;;5043701;28;20137;-70
2022/10/01 07:59:40;;;;;;;17.50;2.63;;;15.10;99.90;;;;;;5040059;28;20119;-70
2022/10/01 08:02:14;;;;;;;15.25;2.28;;;15.20;99.90;;;;;;5037476;28;20657;-72
2022/10/01 08:07:24;;;;;;;11.77;1.95;;;15.50;99.90;;;;;;5033688;28;20114;-70
2022/10/01 08:09:50;;;;;;;17.52;2.70;;;15.60;99.90;;;;;;5044330;28;20060;-71
2022/10/01 08:12:16;;;;;;;17.70;2.75;;;15.70;99.90;;;;;;5046239;28;20414;-70
2022/10/01 08:14:42;;;;;;;13.75;2.15;;;15.80;99.90;;;;;;5041083;28;20472;-70
2022/10/01 08:17:08;;;;;;;14.25;2.22;;;15.90;99.90;;;;;;5037654;28;20033;-70
2022/10/01 08:19:35;;;;;;;13.20;2.45;;;16.00;99.90;;;;;;5039503;28;20041;-72
2022/10/01 08:22:00;;;;;;;16.10;2.75;;;16.10;99.90;;;;;;5046550;28;20033;-71
2022/10/01 08:24:26;;;;;;;16.27;2.40;;;16.00;99.90;;;;;;5044681;28;20730;-70
2022/10/01 08:26:55;;;;;;;15.32;2.17;;;15.90;99.90;;;;;;5044748;28;20115;-71
2022/10/01 08:29:21;;;;;;;17.23;2.92;;;15.80;99.90;;;;;;5041181;28;20049;-71
2022/10/01 08:31:46;;;;;;;17.27;2.45;;;15.70;99.90;;;;;;5041322;28;20037;-72
2022/10/01 08:34:13;;;;;;;13.82;2.97;;;15.70;99.90;;;;;;5042422;28;20063;-72
2022/10/01 08:36:39;;;;;;;15.70;2.20;;;15.70;99.90;;;;;;5039569;28;20044;-71
2022/10/01 08:39:04;;;;;;;15.20;2.13;;;15.70;99.90;;;;;;5043658;28;20036;-71
2022/10/01 08:41:58;;;;;;;18.17;2.67;;;15.90;99.90;;;;;;5043685;28;20036;-70
2022/10/01 08:44:40;;;;;;;16.65;2.50;;;16.10;99.90;;;;;;5042856;28;20026;-73
2022/10/01 08:47:37;;;;;;;11.75;1.73;;;16.10;99.90;;;;;;5062830;28;20709;-74
2022/10/01 08:50:31;;;;;;;16.50;2.72;;;16.10;99.90;;;;;;5056171;28;20545;-75
2022/10/01 08:53:01;;;;;;;17.63;2.70;;;16.20;99.90;;;;;;5043576;28;20041;-70
2022/10/01 08:55:35;;;;;;;15.30;2.40;;;16.30;99.90;;;;;;5053460;28;20036;-71
2022/10/01 08:58:03;;;;;;;14.55;2.13;;;16.30;99.90;;;;;;5033122;28;20026;-74
2022/10/01 09:00:31;;;;;;;13.95;2.50;;;16.40;99.90;;;;;;5036826;28;20032;-78
2022/10/01 09:03:02;;;;;;;14.95;2.55;;;16.40;99.90;;;;;;5031322;28;20044;-75
2022/10/01 09:05:33;;;;;;;14.20;2.10;;;16.50;99.90;;;;;;5040078;28;20036;-73
2022/10/01 09:08:43;;;;;;;15.93;3.10;;;16.50;99.90;;;;;;5041384;28;20786;-73
2022/10/01 09:11:28;;;;;;;;;;;16.40;99.90;;;;;;5041499;28;20033;-70
2022/10/01 09:14:22;;;;;;;13.25;2.10;;;16.40;99.90;;;;;;5037013;28;19913;-71
2022/10/01 09:16:55;;;;;;;15.10;2.40;;;16.40;99.90;;;;;;5033841;28;20033;-78
2022/10/01 09:19:41;;;;;;;17.05;2.97;;;16.30;99.90;;;;;;5043420;28;20039;-74
2022/10/01 09:22:13;;;;;;;15.90;2.42;;;16.30;99.90;;;;;;5041588;28;20037;-75
2022/10/01 09:24:49;;;;;;;17.30;2.55;;;16.30;99.90;;;;;;5034666;28;20034;-74
2022/10/01 09:27:23;;;;;;;17.48;2.40;;;16.30;99.90;;;;;;5042269;28;20041;-73
2022/10/01 09:30:01;;;;;;;14.60;2.38;;;16.30;99.90;;;;;;5045174;28;20459;-71
2022/10/01 09:32:40;;;;;;;16.80;2.58;;;16.30;99.90;;;;;;5043223;28;20034;-69
2022/10/01 09:35:24;;;;;;;15.13;2.47;;;16.30;99.90;;;;;;5036606;28;20029;-70
2022/10/01 09:38:07;;;;;;;12.25;1.95;;;16.40;99.90;;;;;;5036594;28;20302;-71
2022/10/01 09:40:42;;;;;;;16.77;2.63;;;16.50;99.90;;;;;;5053600;28;20033;-72
2022/10/01 09:43:10;;;;;;;19.08;2.53;;;16.80;99.90;;;;;;5040671;28;20048;-73
2022/10/01 09:45:37;;;;;;;14.70;2.45;;;17.10;99.90;;;;;;5034202;28;20059;-74
2022/10/01 09:48:17;;;;;;;15.40;2.58;;;17.50;99.90;;;;;;5041421;28;20048;-73
2022/10/01 09:50:55;;;;;;;15.90;2.88;;;17.60;99.90;;;;;;5035698;28;20037;-72
2022/10/01 09:53:33;;;;;;;15.63;2.78;;;17.70;99.90;;;;;;5039334;28;20036;-73
2022/10/01 09:56:07;;;;;;;14.48;3.00;;;18.00;99.90;;;;;;5032411;28;20114;-75
2022/10/01 09:58:36;;;;;;;13.90;2.80;;;18.20;99.90;;;;;;5034173;28;20585;-72
2022/10/01 10:01:02;;;;;;;21.20;3.40;;;17.90;99.90;;;;;;5041306;28;20037;-71
2022/10/01 10:03:30;;;;;;;22.00;3.05;;;17.90;99.90;;;;;;5038054;28;20522;-72
2022/10/01 10:06:01;;;;;;;15.43;3.05;;;17.80;99.90;;;;;;5040020;28;20510;-70
2022/10/01 10:08:35;;;;;;;16.40;2.85;;;17.60;99.90;;;;;;5041971;28;20527;-71
2022/10/01 10:11:10;;;;;;;13.05;2.55;;;17.50;99.90;;;;;;5044624;28;20037;-72
2022/10/01 10:13:39;;;;;;;15.00;2.60;;;17.30;99.90;;;;;;5037347;28;20201;-73
2022/10/01 10:16:14;;;;;;;14.90;2.70;;;17.10;99.90;;;;;;5041721;28;20061;-73
2022/10/01 10:18:41;;;;;;;11.20;2.13;;;17.10;99.90;;;;;;5039342;28;20072;-71
2022/10/01 10:21:15;;;;;;;13.10;2.70;;;17.10;99.90;;;;;;5068793;28;20033;-74
2022/10/01 10:23:59;;;;;;;15.75;2.70;;;17.10;99.90;;;;;;5040758;28;20044;-72
2022/10/01 10:26:34;;;;;;;11.98;2.30;;;17.40;99.90;;;;;;5041537;28;20032;-73
2022/10/01 10:29:01;;;;;;;14.50;2.10;;;17.60;99.90;;;;;;5040601;28;20033;-73
2022/10/01 10:31:46;;;;;;;14.13;2.78;;;17.90;99.90;;;;;;5038941;28;20035;-75
2022/10/01 10:34:16;;;;;;;12.40;2.33;;;18.10;99.90;;;;;;5036487;28;20365;-72
2022/10/01 10:36:43;;;;;;;11.77;2.53;;;18.10;99.90;;;;;;5042070;28;20033;-73
2022/10/01 10:39:23;;;;;;;15.90;2.28;;;17.80;99.90;;;;;;5036026;28;20037;-73
2022/10/01 10:41:50;;;;;;;12.27;2.40;;;17.60;99.90;;;;;;5038808;28;20048;-74
2022/10/01 10:44:21;;;;;;;13.70;2.38;;;17.50;99.90;;;;;;5042156;28;20036;-74
2022/10/01 10:46:48;;;;;;;12.27;2.22;;;17.30;99.90;;;;;;5038279;28;20029;-73
2022/10/01 10:49:28;;;;;;;12.30;1.88;;;17.30;99.90;;;;;;5037923;28;20076;-73
2022/10/01 10:51:57;;;;;;;13.82;2.63;;;17.60;99.90;;;;;;5038431;28;20049;-73
2022/10/01 10:54:37;;;;;;;11.43;2.50;;;17.70;99.90;;;;;;5036181;28;20112;-72
2022/10/01 10:57:28;;;;;;;12.05;2.10;;;17.80;99.90;;;;;;5034559;28;20060;-73
2022/10/01 11:00:15;;;;;;;11.88;2.58;;;17.90;99.90;;;;;;5032800;28;20033;-73
2022/10/01 11:02:57;;;;;;;12.73;2.60;;;18.00;99.90;;;;;;5036468;28;20395;-75
2022/10/01 11:05:30;;;;;;;9.82;1.75;;;18.00;99.90;;;;;;5047858;28;20431;-72
2022/10/01 11:07:59;;;;;;;11.07;2.08;;;18.10;99.90;;;;;;5041996;28;20505;-71
2022/10/01 11:10:43;;;;;;;9.88;1.73;;;18.40;99.90;;;;;;5031333;28;20032;-73
2022/10/01 11:13:21;;;;;;;12.43;2.42;;;18.60;99.90;;;;;;5030323;28;20057;-72
2022/10/01 11:16:24;;;;;;;15.85;1.90;;;18.60;99.90;;;;;;5040548;28;20021;-73
2022/10/01 11:19:07;;;;;;;11.02;1.95;;;18.40;98.50;;;;;;5033030;28;20568;-74
2022/10/01 11:21:53;;;;;;;11.70;2.00;;;18.40;99.90;;;;;;5039759;28;20116;-75
2022/10/01 11:24:31;;;;;;;16.75;2.45;;;18.20;99.90;;;;;;5032861;28;20735;-72
2022/10/01 11:27:16;;;;;;;13.33;1.90;;;18.20;99.90;;;;;;5036184;28;20144;-72
2022/10/01 11:29:51;;;;;;;9.70;1.65;;;18.20;99.90;;;;;;5035283;28;20812;-74
2022/10/01 11:32:32;;;;;;;16.88;2.35;;;18.30;99.90;;;;;;5037613;28;20040;-72
2022/10/01 11:35:02;;;;;;;12.15;2.40;;;18.30;98.80;;;;;;5032874;28;20506;-73
2022/10/01 11:38:05;;;;;;;10.38;1.58;;;18.10;99.30;;;;;;5037400;28;20041;-72
2022/10/01 11:40:52;;;;;;;12.90;2.38;;;17.90;99.90;;;;;;5028765;28;20029;-72
2022/10/01 11:43:20;;;;;;;12.65;2.67;;;17.80;98.90;;;;;;5036385;28;20116;-72
2022/10/01 11:45:50;;;;;;;10.30;1.55;;;17.80;99.90;;;;;;5028356;28;20562;-73
2022/10/01 11:48:28;;;;;;;8.98;1.70;;;18.00;99.90;;;;;;5041371;28;20040;-73
2022/10/01 11:51:01;;;;;;;9.88;1.83;;;18.30;99.90;;;;;;5038143;28;20091;-73
2022/10/01 11:53:44;;;;;;;11.68;1.95;;;18.70;99.90;;;;;;5032644;28;20034;-72
2022/10/01 11:59:00;;;;;;;10.13;1.95;;;19.10;98.90;;;;;;5043585;28;20116;-73
2022/10/01 12:01:44;;;;;;;;;;;19.40;99.00;;;;;;5041612;28;20055;-72
2022/10/01 12:04:51;;;;;;;12.00;2.20;;;19.50;98.40;;;;;;5036121;28;19923;-73
2022/10/01 12:07:38;;;;;;;10.63;1.73;;;19.70;97.60;;;;;;5020051;28;20223;-73
2022/10/01 12:10:19;;;;;;;9.88;1.83;;;20.20;95.50;;;;;;5033240;28;20080;-76
2022/10/01 12:13:08;;;;;;;12.52;2.00;;;20.40;95.40;;;;;;5039450;28;20038;-74
2022/10/01 12:15:42;;;;;;;12.30;1.98;;;20.30;94.20;;;;;;5046754;28;20112;-73
2022/10/01 12:18:24;;;;;;;9.48;1.77;;;20.00;93.50;;;;;;5035675;28;20487;-72
2022/10/01 12:20:59;;;;;;;12.20;2.00;;;19.70;93.40;;;;;;5031922;28;20075;-77
2022/10/01 12:23:50;;;;;;;10.02;1.77;;;19.40;94.10;;;;;;5043553;28;20036;-71
2022/10/01 12:26:34;;;;;;;13.65;2.38;;;19.40;95.30;;;;;;5030952;28;20030;-71
2022/10/01 12:29:23;;;;;;;12.48;2.08;;;19.40;94.10;;;;;;5036573;28;20029;-73
2022/10/01 12:32:08;;;;;;;11.18;2.10;;;19.40;93.20;;;;;;5034254;28;20037;-72
2022/10/01 12:35:32;;;;;;;14.10;2.20;;;19.40;93.10;;;;;;5029879;28;20447;-74
2022/10/01 12:38:17;;;;;;;14.80;2.15;;;19.10;93.80;;;;;;4986551;28;20045;-71
2022/10/01 12:41:00;;;;;;;12.07;2.33;;;18.90;95.90;;;;;;4984366;28;20516;-71
2022/10/01 12:43:39;;;;;;;15.55;2.53;;;18.90;96.90;;;;;;4982467;28;20026;-71
2022/10/01 12:46:27;;;;;;;9.57;1.88;;;18.70;96.60;;;;;;4983677;28;20149;-71
2022/10/01 12:49:21;;;;;;;14.93;2.35;;;18.60;97.50;;;;;;5002027;28;20061;-72
2022/10/01 12:51:56;;;;;;;14.05;2.22;;;18.50;98.90;;;;;;4987605;28;20033;-72
2022/10/01 12:54:31;;;;;;;17.60;2.72;;;18.40;99.70;;;;;;4974741;28;20141;-71
2022/10/01 12:57:18;;;;;;;17.30;3.35;;;18.30;99.90;;;;;;4994327;28;20038;-71
2022/10/01 13:00:03;;;;;;;17.73;2.67;;;18.30;99.90;;;;;;4987216;28;20073;-71
2022/10/01 13:02:31;;;;;;;13.75;2.20;;;18.50;99.90;;;;;;4977713;28;20030;-72
2022/10/01 13:05:30;;;;;;;13.88;2.90;;;18.90;99.90;;;;;;4995216;28;20045;-71
2022/10/01 13:08:30;;;;;;;13.25;2.63;;;19.40;99.80;;;;;;4990693;28;20061;-71